createdAt,value
2018-08-20T00:02:25.716Z,5.28
2018-08-20T00:04:55.261Z,5.20
2018-08-20T00:07:24.796Z,5.72
2018-08-20T00:09:55.139Z,6.22
2018-08-20T00:12:24.220Z,6.03
2018-08-20T00:14:53.535Z,5.53
2018-08-20T00:17:22.877Z,5.70
2018-08-20T00:19:52.198Z,6.10
2018-08-20T00:22:21.744Z,5.07
2018-08-20T00:24:56.664Z,5.43
2018-08-20T00:27:25.982Z,5.67
2018-08-20T00:29:55.525Z,4.50
2018-08-20T00:32:24.843Z,4.42
2018-08-20T00:34:54.156Z,5.67
2018-08-20T00:37:23.591Z,5.62
2018-08-20T00:39:52.921Z,4.83
2018-08-20T00:42:22.695Z,12.90
2018-08-20T00:44:52.008Z,4.30
2018-08-20T00:47:21.351Z,4.23
2018-08-20T00:49:50.664Z,5.23
2018-08-20T00:52:20.012Z,7.00
2018-08-20T00:54:50.055Z,7.12
2018-08-20T00:57:19.708Z,10.03
2018-08-20T00:59:49.705Z,10.13
2018-08-20T01:02:24.904Z,4.33
2018-08-20T01:04:54.242Z,5.33
2018-08-20T01:07:23.827Z,4.40
2018-08-20T01:09:53.640Z,5.20
2018-08-20T01:12:23.126Z,4.77
2018-08-20T01:14:52.420Z,4.80
2018-08-20T01:17:22.351Z,4.13
2018-08-20T01:19:51.821Z,6.93
2018-08-20T01:22:21.551Z,4.27
2018-08-20T01:24:51.102Z,4.97
2018-08-20T01:27:26.776Z,6.80
2018-08-20T01:29:57.044Z,4.40
2018-08-20T01:32:27.276Z,4.77
2018-08-20T01:35:01.818Z,4.67
2018-08-20T01:37:31.235Z,4.55
2018-08-20T01:40:00.555Z,4.60
2018-08-20T01:42:30.167Z,4.35
2018-08-20T01:44:59.691Z,5.10
2018-08-20T01:47:29.235Z,5.30
2018-08-20T01:49:58.834Z,5.93
2018-08-20T01:52:28.400Z,4.53
2018-08-20T01:54:57.695Z,4.08
2018-08-20T01:57:27.021Z,7.23
2018-08-20T01:59:56.326Z,3.87
2018-08-20T02:02:25.715Z,3.57
2018-08-20T02:04:55.019Z,3.90
2018-08-20T02:07:24.115Z,4.30
2018-08-20T02:09:53.461Z,4.83
2018-08-20T02:12:22.763Z,3.80
2018-08-20T02:14:52.096Z,4.27
2018-08-20T02:17:21.588Z,4.00
2018-08-20T02:19:50.671Z,4.30
2018-08-20T02:22:19.996Z,4.13
2018-08-20T02:24:49.321Z,4.10
2018-08-20T02:27:18.628Z,3.93
2018-08-20T02:29:47.940Z,3.63
2018-08-20T02:32:17.015Z,3.93
2018-08-20T02:34:46.108Z,4.73
2018-08-20T02:37:15.441Z,4.83
2018-08-20T02:39:44.988Z,3.75
2018-08-20T02:42:14.316Z,4.20
2018-08-20T02:44:43.439Z,7.03
2018-08-20T02:47:12.786Z,4.03
2018-08-20T02:49:42.313Z,3.97
2018-08-20T02:52:11.855Z,3.93
2018-08-20T02:54:41.536Z,5.60
2018-08-20T02:57:10.635Z,8.17
2018-08-20T02:59:40.140Z,3.27
2018-08-20T03:02:09.236Z,5.83
2018-08-20T03:04:39.351Z,3.93
2018-08-20T03:07:08.668Z,5.87
2018-08-20T03:09:37.964Z,3.57
2018-08-20T03:12:07.344Z,3.20
2018-08-20T03:14:36.554Z,4.40
2018-08-20T03:17:05.856Z,3.33
2018-08-20T03:19:35.190Z,3.37
2018-08-20T03:22:05.309Z,3.40
2018-08-20T03:24:34.415Z,3.57
2018-08-20T03:27:03.759Z,3.77
2018-08-20T03:29:33.079Z,4.83
2018-08-20T03:32:02.446Z,3.70
2018-08-20T03:34:31.997Z,3.23
2018-08-20T03:37:02.067Z,3.67
2018-08-20T03:39:31.414Z,3.97
2018-08-20T03:42:00.953Z,3.17
2018-08-20T03:44:30.541Z,4.20
2018-08-20T03:46:59.834Z,3.93
2018-08-20T03:49:28.925Z,3.57
2018-08-20T03:51:58.043Z,3.70
2018-08-20T03:54:27.379Z,2.97
2018-08-20T03:56:56.943Z,3.25
2018-08-20T03:59:33.916Z,3.35
2018-08-20T04:02:04.547Z,3.40
2018-08-20T04:04:33.893Z,6.27
2018-08-20T04:07:04.706Z,3.20
2018-08-20T04:09:34.476Z,3.43
2018-08-20T04:12:04.729Z,4.07
2018-08-20T04:14:34.288Z,2.90
2018-08-20T04:17:03.385Z,3.00
2018-08-20T04:19:32.712Z,3.10
2018-08-20T04:22:02.590Z,3.70
2018-08-20T04:24:31.885Z,3.03
2018-08-20T04:27:01.242Z,3.50
2018-08-20T04:29:30.793Z,3.60
2018-08-20T04:32:00.352Z,3.40
2018-08-20T04:34:30.158Z,2.63
2018-08-20T04:36:59.242Z,2.65
2018-08-20T04:39:28.454Z,3.37
2018-08-20T04:41:57.603Z,3.35
2018-08-20T04:44:27.029Z,2.62
2018-08-20T04:46:56.120Z,2.77
2018-08-20T04:49:25.341Z,5.57
2018-08-20T04:51:54.856Z,3.20
2018-08-20T04:54:24.397Z,2.52
2018-08-20T04:56:53.853Z,2.47
2018-08-20T04:59:23.185Z,2.53
2018-08-20T05:01:53.294Z,3.20
2018-08-20T05:04:22.445Z,3.10
2018-08-20T05:06:51.761Z,3.33
2018-08-20T05:09:21.297Z,2.50
2018-08-20T05:11:51.432Z,2.80
2018-08-20T05:14:20.752Z,4.50
2018-08-20T05:16:50.094Z,2.70
2018-08-20T05:19:19.400Z,3.60
2018-08-20T05:21:48.493Z,2.33
2018-08-20T05:24:17.813Z,4.20
2018-08-20T05:26:46.913Z,2.50
2018-08-20T05:29:16.593Z,3.67
2018-08-20T05:31:45.828Z,2.50
2018-08-20T05:34:15.166Z,3.57
2018-08-20T05:36:44.717Z,32.70
2018-08-20T05:39:14.104Z,32.33
2018-08-20T05:41:43.516Z,30.50
2018-08-20T05:44:13.048Z,42.70
2018-08-20T05:46:42.883Z,41.40
2018-08-20T05:49:12.736Z,38.13
2018-08-20T05:51:42.568Z,29.40
2018-08-20T05:54:11.916Z,42.10
2018-08-20T05:56:41.425Z,21.63
2018-08-20T05:59:10.534Z,30.67
2018-08-20T06:01:40.180Z,42.10
2018-08-20T06:04:09.752Z,24.07
2018-08-20T06:06:39.488Z,24.70
2018-08-20T06:09:10.124Z,33.10
2018-08-20T06:11:39.884Z,31.23
2018-08-20T06:14:08.973Z,32.27
2018-08-20T06:16:38.350Z,36.40
2018-08-20T06:19:07.650Z,30.60
2018-08-20T06:21:36.988Z,33.63
2018-08-20T06:24:06.544Z,38.63
2018-08-20T06:26:35.852Z,32.03
2018-08-20T06:29:05.407Z,49.33
2018-08-20T06:31:35.016Z,41.87
2018-08-20T06:34:04.256Z,42.33
2018-08-20T06:36:33.375Z,47.90
2018-08-20T06:39:02.721Z,49.73
2018-08-20T06:41:32.059Z,39.98
2018-08-20T06:44:01.132Z,35.60
2018-08-20T06:46:30.243Z,31.40
2018-08-20T06:48:59.596Z,35.27
2018-08-20T06:51:28.912Z,49.45
2018-08-20T06:53:58.225Z,33.92
2018-08-20T06:56:27.655Z,34.00
2018-08-20T06:58:57.119Z,25.50
2018-08-20T07:01:26.221Z,23.57
2018-08-20T07:36:28.035Z,83.27
2018-08-20T07:39:00.208Z,142.25
2018-08-20T07:41:29.761Z,556.50
2018-08-20T07:43:59.616Z,139.60
2018-08-20T07:46:29.323Z,365.30
2018-08-20T07:49:12.705Z,532.83
2018-08-20T07:54:48.452Z,224.47
2018-08-20T07:57:27.615Z,195.50
2018-08-20T07:59:58.087Z,137.50
2018-08-20T08:02:27.982Z,71.70
2018-08-20T08:04:57.114Z,69.73
2018-08-20T08:07:26.382Z,50.90
2018-08-20T08:09:55.654Z,33.37
2018-08-20T08:12:24.759Z,32.80
2018-08-20T08:14:53.919Z,32.33
2018-08-20T08:17:23.796Z,11.80
2018-08-20T08:19:52.998Z,18.13
2018-08-20T08:22:22.143Z,52.83
2018-08-20T08:24:53.825Z,35.83
2018-08-20T08:27:23.770Z,60.70
2018-08-20T08:29:52.839Z,54.67
2018-08-20T08:32:22.312Z,255.40
2018-08-20T08:34:52.791Z,100.43
2018-08-20T08:37:22.432Z,124.53
2018-08-20T08:39:52.003Z,59.88
2018-08-20T08:42:21.434Z,46.40
2018-08-20T08:44:50.806Z,73.10
2018-08-20T08:47:19.937Z,74.10
2018-08-20T08:49:49.120Z,76.83
2018-08-20T08:52:19.157Z,53.53
2018-08-20T08:54:48.614Z,75.37
2018-08-20T08:57:27.441Z,54.00
2018-08-20T08:59:57.385Z,50.30
2018-08-20T09:02:27.234Z,65.17
2018-08-20T09:04:56.322Z,41.47
2018-08-20T09:07:25.483Z,50.70
2018-08-20T09:09:54.621Z,67.87
2018-08-20T09:12:24.330Z,97.80
2018-08-20T09:14:53.593Z,61.53
2018-08-20T09:17:22.733Z,33.67
2018-08-20T09:19:52.155Z,48.60
2018-08-20T09:22:21.238Z,26.77
2018-08-20T09:24:50.583Z,36.37
2018-08-20T09:27:19.915Z,57.90
2018-08-20T09:29:49.169Z,21.83
2018-08-20T09:32:18.347Z,51.43
2018-08-20T09:34:47.447Z,45.07
2018-08-20T09:37:16.623Z,33.77
2018-08-20T09:39:46.021Z,21.50
2018-08-20T09:42:15.367Z,24.23
2018-08-20T09:44:44.477Z,32.03
2018-08-20T09:47:13.856Z,38.23
2018-08-20T09:49:43.304Z,32.60
2018-08-20T09:52:12.470Z,25.70
2018-08-20T09:54:41.634Z,36.03
2018-08-20T09:57:11.996Z,24.50
2018-08-20T09:59:41.336Z,12.33
2018-08-20T10:02:10.790Z,15.60
2018-08-20T10:04:40.262Z,25.23
2018-08-20T10:07:09.653Z,12.43
2018-08-20T10:09:38.835Z,12.23
2018-08-20T10:12:07.876Z,18.50
2018-08-20T10:14:37.263Z,31.03
2018-08-20T10:17:06.868Z,25.83
2018-08-20T10:19:36.957Z,18.47
2018-08-20T10:22:10.780Z,17.70
2018-08-20T10:24:43.033Z,24.90
2018-08-20T10:27:34.957Z,10.90
2018-08-20T10:30:15.058Z,17.40
2018-08-20T10:32:44.189Z,29.07
2018-08-20T10:35:13.350Z,15.73
2018-08-20T10:37:43.773Z,19.70
2018-08-20T10:40:13.507Z,15.63
2018-08-20T10:42:42.821Z,12.60
2018-08-20T10:45:19.894Z,42.97
2018-08-20T10:52:50.649Z,39.07
2018-08-20T10:55:20.650Z,54.30
2018-08-20T10:57:50.290Z,51.08
2018-08-20T11:00:20.178Z,52.03
2018-08-20T11:28:57.371Z,31.77
2018-08-20T11:31:26.722Z,32.03
2018-08-20T11:33:55.984Z,41.50
2018-08-20T11:36:25.575Z,35.00
2018-08-20T11:38:55.318Z,35.03
2018-08-20T11:41:24.651Z,26.67
2018-08-20T11:43:53.851Z,44.03
2018-08-20T11:46:23.230Z,34.77
2018-08-20T11:48:52.650Z,29.07
2018-08-20T11:51:21.868Z,29.27
2018-08-20T11:53:51.702Z,44.70
2018-08-20T11:56:22.084Z,27.37
2018-08-20T11:58:51.676Z,8.23
2018-08-20T12:01:21.736Z,11.83
2018-08-20T12:03:56.206Z,5.33
2018-08-20T12:06:26.428Z,11.83
2018-08-20T12:08:55.732Z,6.13
2018-08-20T12:11:25.098Z,9.40
2018-08-20T12:13:54.445Z,6.20
2018-08-20T12:16:24.007Z,11.93
2018-08-20T12:18:53.735Z,10.20
2018-08-20T12:21:23.417Z,7.33
2018-08-20T12:23:53.247Z,3.23
2018-08-20T12:26:22.477Z,12.47
2018-08-20T12:28:52.338Z,8.87
2018-08-20T12:31:24.407Z,8.63
2018-08-20T12:33:53.601Z,7.23
2018-08-20T12:36:23.210Z,5.17
2018-08-20T12:38:52.894Z,6.60
2018-08-20T12:44:02.575Z,3.70
2018-08-20T12:46:31.762Z,10.03
2018-08-20T12:49:00.854Z,4.90
2018-08-20T12:51:29.953Z,5.90
2018-08-20T12:53:59.169Z,4.50
2018-08-20T12:56:29.331Z,5.77
2018-08-20T12:58:59.126Z,9.95
2018-08-20T13:01:28.513Z,22.48
2018-08-20T13:03:57.730Z,16.23
2018-08-20T13:06:27.090Z,7.70
2018-08-20T13:08:56.450Z,15.83
2018-08-20T13:11:25.982Z,9.40
2018-08-20T13:13:55.121Z,13.43
2018-08-20T13:16:24.269Z,16.20
2018-08-20T13:18:53.554Z,15.77
2018-08-20T13:21:23.389Z,16.50
2018-08-20T13:23:53.234Z,34.23
2018-08-20T13:26:22.354Z,15.87
2018-08-20T13:28:51.441Z,25.07
2018-08-20T13:31:20.543Z,25.23
2018-08-20T13:33:50.403Z,17.40
2018-08-20T13:36:19.497Z,27.03
2018-08-20T13:38:48.582Z,24.00
2018-08-20T13:41:17.643Z,23.90
2018-08-20T13:43:46.773Z,21.83
2018-08-20T13:46:15.861Z,22.97
2018-08-20T13:48:44.961Z,20.30
2018-08-20T13:51:14.070Z,13.93
2018-08-20T13:53:43.282Z,21.80
2018-08-20T13:56:12.655Z,15.60
2018-08-20T13:58:41.996Z,27.20
2018-08-20T14:01:11.110Z,20.50
2018-08-20T14:03:40.593Z,22.70
2018-08-20T14:06:13.337Z,23.13
2018-08-20T14:08:43.459Z,20.60
2018-08-20T14:11:17.254Z,15.93
2018-08-20T14:13:48.518Z,21.13
2018-08-20T14:16:17.625Z,16.07
2018-08-20T14:18:47.540Z,24.93
2018-08-20T14:21:17.598Z,27.43
2018-08-20T14:23:48.306Z,28.00
2018-08-20T14:26:17.711Z,18.13
2018-08-20T14:28:47.131Z,15.50
2018-08-20T14:31:16.848Z,25.13
2018-08-20T14:33:47.307Z,14.47
2018-08-20T14:36:16.997Z,18.70
2018-08-20T14:38:46.150Z,13.00
2018-08-20T14:41:15.245Z,25.27
2018-08-20T14:43:44.329Z,6.80
2018-08-20T14:46:19.028Z,9.93
2018-08-20T14:48:48.704Z,11.90
2018-08-20T14:51:18.014Z,11.30
2018-08-20T14:53:47.151Z,10.77
2018-08-20T14:56:16.235Z,6.80
2018-08-20T14:58:45.325Z,12.60
2018-08-20T15:01:14.699Z,23.30
2018-08-20T15:03:44.050Z,11.40
2018-08-20T15:06:16.807Z,19.40
2018-08-20T15:08:47.816Z,10.57
2018-08-20T15:11:30.773Z,10.43
2018-08-20T15:14:00.855Z,16.60
2018-08-20T15:16:30.715Z,29.30
2018-08-20T15:18:59.893Z,11.33
2018-08-20T15:21:29.309Z,18.93
2018-08-20T15:23:58.481Z,6.53
2018-08-20T15:26:27.678Z,9.07
2018-08-20T15:28:57.094Z,5.40
2018-08-20T15:31:27.242Z,20.80
2018-08-20T15:33:57.064Z,18.53
2018-08-20T15:36:26.913Z,14.17
2018-08-20T15:38:56.717Z,22.07
2018-08-20T15:41:26.939Z,26.73
2018-08-20T15:43:56.342Z,13.10
2018-08-20T15:46:25.479Z,21.07
2018-08-20T15:48:54.581Z,8.43
2018-08-20T15:51:23.994Z,22.37
2018-08-20T15:53:57.978Z,26.03
2018-08-20T15:56:28.173Z,6.37
2018-08-20T15:58:58.237Z,4.37
2018-08-20T16:01:29.375Z,10.17
2018-08-20T16:03:58.508Z,3.37
2018-08-20T16:06:28.056Z,4.50
2018-08-20T16:08:59.189Z,3.77
2018-08-20T16:11:31.606Z,13.63
2018-08-20T16:14:07.191Z,3.00
2018-08-20T16:16:36.380Z,0.70
2018-08-20T16:19:07.489Z,4.77
2018-08-20T16:21:37.266Z,5.27
2018-08-20T16:24:06.607Z,5.70
2018-08-20T16:26:36.146Z,8.00
2018-08-20T16:29:05.654Z,2.43
2018-08-20T16:31:34.723Z,9.20
2018-08-20T16:34:04.135Z,6.43
2018-08-20T16:36:34.106Z,7.50
2018-08-20T16:39:04.975Z,2.50
2018-08-20T16:41:34.079Z,3.90
2018-08-20T16:44:03.175Z,1.73
2018-08-20T16:46:32.458Z,2.33
2018-08-20T16:49:01.822Z,3.50
2018-08-20T16:51:31.552Z,4.27
2018-08-20T16:54:00.894Z,2.83
2018-08-20T16:56:29.973Z,7.50
2018-08-20T16:58:59.362Z,2.80
2018-08-20T17:01:29.209Z,5.67
2018-08-20T17:03:59.181Z,2.80
2018-08-20T17:06:33.816Z,3.03
2018-08-20T17:09:03.093Z,1.10
2018-08-20T17:11:32.496Z,1.23
2018-08-20T17:14:01.918Z,2.20
2018-08-20T17:16:31.049Z,5.70
2018-08-20T17:19:00.213Z,6.30
2018-08-20T17:21:29.718Z,3.90
2018-08-20T17:24:00.498Z,7.93
2018-08-20T17:26:30.370Z,5.30
2018-08-20T17:29:05.291Z,3.40
2018-08-20T17:31:34.780Z,3.40
2018-08-20T17:36:46.498Z,1.47
2018-08-20T17:39:21.682Z,1.30
2018-08-20T17:41:53.908Z,1.03
2018-08-20T17:51:02.681Z,1.10
2018-08-20T17:53:37.462Z,2.67
2018-08-20T17:56:06.788Z,1.30
2018-08-20T17:58:36.334Z,1.92
2018-08-20T18:01:05.934Z,8.33
2018-08-20T18:07:00.435Z,2.60
2018-08-20T18:09:33.215Z,2.50
2018-08-20T18:12:15.507Z,1.35
2018-08-20T18:14:47.263Z,5.63
2018-08-20T18:17:18.258Z,3.63
2018-08-20T18:19:47.889Z,1.93
2018-08-20T18:22:17.278Z,4.60
2018-08-20T18:24:47.031Z,4.70
2018-08-20T18:27:16.749Z,0.90
2018-08-20T18:29:46.060Z,3.83
2018-08-20T18:32:15.968Z,1.60
2018-08-20T18:34:47.067Z,3.87
2018-08-20T18:37:20.631Z,2.40
2018-08-20T18:39:54.040Z,1.30
2018-08-20T18:42:29.327Z,1.90
2018-08-20T18:44:59.256Z,7.80
2018-08-20T18:47:28.655Z,2.10
2018-08-20T18:50:01.085Z,25.73
2018-08-20T18:52:32.165Z,7.50
2018-08-20T18:55:02.073Z,1.45
2018-08-20T18:57:35.509Z,3.53
2018-08-20T19:00:05.571Z,2.43
2018-08-20T19:03:42.814Z,2.73
2018-08-20T19:06:17.635Z,2.42
2018-08-20T19:08:48.763Z,2.40
2018-08-20T19:11:19.290Z,2.20
2018-08-20T19:13:49.174Z,3.17
2018-08-20T19:16:23.711Z,2.10
2018-08-20T19:18:56.638Z,4.00
2018-08-20T19:21:26.949Z,1.23
2018-08-20T19:23:57.718Z,2.90
2018-08-20T19:26:28.619Z,3.80
2018-08-20T19:28:58.282Z,2.40
2018-08-20T19:31:27.409Z,1.43
2018-08-20T19:33:56.626Z,4.17
2018-08-20T19:36:25.772Z,2.40
2018-08-20T19:38:55.446Z,3.37
2018-08-20T19:41:24.893Z,1.70
2018-08-20T19:44:05.943Z,3.00
2018-08-20T19:46:39.321Z,3.80
2018-08-20T19:49:12.620Z,1.70
2018-08-20T19:51:44.500Z,6.17
2018-08-20T19:54:16.418Z,14.73
2018-08-20T19:56:45.723Z,11.57
2018-08-20T19:59:23.856Z,2.45
2018-08-20T20:01:55.471Z,3.70
2018-08-20T20:04:24.581Z,4.17
2018-08-20T20:06:53.982Z,2.53
2018-08-20T20:09:23.634Z,2.20
2018-08-20T20:11:55.038Z,5.20
2018-08-20T20:14:28.027Z,3.27
2018-08-20T20:16:57.357Z,3.63
2018-08-20T20:19:26.928Z,3.57
2018-08-20T20:21:56.772Z,1.23
2018-08-20T20:24:26.602Z,1.00
2018-08-20T20:26:55.802Z,1.17
2018-08-20T20:29:24.878Z,2.40
2018-08-20T20:31:53.957Z,3.03
2018-08-20T20:34:23.674Z,3.37
2018-08-20T20:36:52.782Z,1.87
2018-08-20T20:39:21.833Z,1.37
2018-08-20T20:41:50.905Z,1.07
2018-08-20T20:44:20.254Z,1.13
2018-08-20T20:46:50.215Z,4.20
2018-08-20T20:49:19.443Z,1.07
2018-08-20T20:51:48.871Z,5.50
2018-08-20T20:54:18.165Z,1.20
2018-08-20T20:56:49.335Z,1.57
2018-08-20T20:59:19.607Z,3.90
2018-08-20T21:01:49.377Z,0.80
2018-08-20T21:04:18.632Z,3.73
2018-08-20T21:06:47.954Z,3.40
2018-08-20T21:09:17.498Z,1.22
2018-08-20T21:11:46.810Z,2.63
2018-08-20T21:14:16.013Z,3.70
2018-08-20T21:16:45.102Z,2.50
2018-08-20T21:19:14.361Z,1.30
2018-08-20T21:21:43.738Z,0.83
2018-08-20T21:24:13.122Z,1.00
2018-08-20T21:26:42.201Z,0.73
2018-08-20T21:29:11.283Z,4.20
2018-08-20T21:31:56.021Z,0.70
2018-08-20T21:34:28.342Z,1.33
2018-08-20T21:36:57.415Z,1.10
2018-08-20T21:39:26.566Z,2.00
2018-08-20T21:41:55.654Z,0.63
2018-08-20T21:44:25.092Z,1.23
2018-08-20T21:46:54.374Z,1.17
2018-08-20T21:49:23.491Z,0.90
2018-08-20T21:51:56.729Z,1.40
2018-08-20T21:54:31.321Z,1.43
2018-08-20T21:57:01.226Z,1.23
2018-08-20T21:59:30.427Z,0.90
2018-08-20T22:01:59.766Z,1.30
2018-08-20T22:04:30.373Z,1.10
2018-08-20T22:06:59.721Z,0.90
2018-08-20T22:09:28.831Z,2.10
2018-08-20T22:11:58.687Z,3.17
2018-08-20T22:14:28.335Z,0.90
2018-08-20T22:16:57.634Z,1.73
2018-08-20T22:19:26.698Z,2.47
2018-08-20T22:21:55.792Z,1.27
2018-08-20T22:24:24.984Z,1.43
2018-08-20T22:26:58.077Z,3.67
2018-08-20T22:29:33.901Z,2.83
2018-08-20T22:32:04.158Z,5.77
2018-08-20T22:34:33.209Z,0.70
2018-08-20T22:37:05.638Z,1.00
2018-08-20T22:39:34.956Z,0.90
2018-08-20T22:42:04.641Z,1.50
2018-08-20T22:44:33.922Z,1.87
2018-08-20T22:47:03.067Z,1.50
2018-08-20T22:49:32.779Z,1.20
2018-08-20T22:52:02.155Z,1.27
2018-08-20T22:54:31.840Z,0.70
2018-08-20T22:57:01.084Z,1.07
2018-08-20T22:59:30.326Z,0.90
2018-08-20T23:01:59.422Z,1.37
2018-08-20T23:04:28.674Z,0.97
2018-08-20T23:07:01.426Z,1.13
2018-08-20T23:09:31.687Z,1.00
2018-08-20T23:12:00.766Z,1.00
2018-08-20T23:14:29.887Z,1.13
2018-08-20T23:16:59.095Z,3.07
2018-08-20T23:19:29.767Z,0.80
2018-08-20T23:21:59.554Z,1.07
2018-08-20T23:24:28.843Z,2.23
2018-08-20T23:26:58.162Z,2.50
2018-08-20T23:29:27.502Z,1.27
2018-08-20T23:31:56.829Z,1.57
2018-08-20T23:34:26.826Z,0.63
2018-08-20T23:36:56.298Z,1.47
2018-08-20T23:39:25.414Z,0.93
2018-08-20T23:41:54.533Z,0.80
2018-08-20T23:44:23.874Z,0.90
2018-08-20T23:46:53.446Z,0.88
2018-08-20T23:49:22.729Z,1.47
2018-08-20T23:51:51.835Z,1.57
2018-08-20T23:54:21.202Z,1.27
2018-08-20T23:56:50.540Z,1.20
2018-08-20T23:59:19.953Z,1.07
